Date,TemperatureHighF,TemperatureAvgF,TemperatureLowF,DewpointHighF,DewpointAvgF,DewpointLowF,HumidityHigh,HumidityAvg,HumidityLow,PressureMaxIn,PressureMinIn,WindSpeedMaxMPH,WindSpeedAvgMPH,GustSpeedMaxMPH,PrecipitationSumIn
2014-1-1,77,59,42,-100,-100,-100,10,7,5,28.23,28.17,8,1,11,0.00
2014-1-2,77,62,50,-100,-100,-100,8,7,5,28.23,28.14,10,1,10,0.00
2014-1-3,75,59,47,-100,-100,-100,8,7,5,28.17,28.02,9,1,9,0.00
2014-1-4,70,56,46,-100,-100,-100,9,7,5,28.14,28.05,8,1,8,0.00
2014-1-5,72,59,48,-100,-100,-100,8,7,5,28.32,28.14,14,2,15,0.00
2014-1-6,71,57,45,-100,-100,-100,9,7,5,28.35,28.23,10,2,10,0.00
2014-1-7,67,55,43,-100,-100,-100,9,7,5,28.26,28.17,5,0,5,0.00
2014-1-8,67,53,42,-100,-100,-100,33,8,5,28.23,28.11,8,1,10,0.00
2014-1-9,61,50,40,-100,-100,-100,65,38,9,28.20,28.08,10,1,10,0.00
2014-1-10,74,57,41,-100,-100,-100,68,24,5,28.23,28.14,9,2,9,0.00
2014-1-11,74,58,45,-100,-100,-100,33,9,5,28.29,28.17,10,1,10,0.00
2014-1-12,66,55,42,-100,-100,-100,49,18,5,28.32,28.14,9,1,9,0.00
2014-1-13,72,58,45,-100,-100,-100,9,7,5,28.44,28.32,11,2,11,0.00
2014-1-14,78,64,49,-100,-100,-100,8,6,5,28.44,28.35,12,3,12,0.00
2014-1-15,79,63,49,-100,-100,-100,8,6,5,28.38,28.26,10,2,10,0.00
2014-1-16,80,65,53,-100,-100,-100,7,6,5,28.29,28.17,13,3,13,0.00
2014-1-17,80,64,51,-100,-100,-100,8,6,5,28.29,28.17,10,2,11,0.00
2014-1-18,81,63,49,-100,-100,-100,8,6,5,28.23,28.11,8,1,8,0.00
2014-1-19,78,62,50,-100,-100,-100,8,6,5,28.26,28.14,8,1,9,0.00
2014-1-20,79,61,46,-100,-100,-100,9,7,5,28.32,28.17,10,1,10,0.00
2014-1-21,76,63,53,-100,-100,-100,7,6,5,28.32,28.20,11,2,11,0.00
2014-1-22,77,62,50,-100,-100,-100,8,7,5,28.20,28.02,9,2,9,0.00
2014-1-23,75,60,43,-100,-100,-100,9,7,5,28.23,27.99,17,3,17,0.00
2014-1-24,71,64,57,-100,-100,-100,7,6,5,28.35,28.23,9,1,9,0.00
2014-1-25,73,64,52,-100,-100,-100,18,7,5,28.32,28.20,9,1,9,0.00
2014-1-26,66,57,46,-100,-100,-100,37,19,5,28.26,28.11,7,1,7,0.00
2014-1-27,68,56,47,-100,-100,-100,63,32,7,28.20,28.11,10,1,10,0.00
2014-1-28,73,58,45,-100,-100,-100,75,33,6,28.23,28.11,11,2,11,0.00
2014-1-29,78,62,48,-100,-100,-100,27,10,5,28.20,28.05,10,1,10,0.00
2014-1-30,60,55,49,-100,-100,-100,84,43,24,28.08,27.99,9,1,9,0.00
2014-1-31,59,53,44,-100,-100,-100,92,55,12,28.08,27.96,9,2,10,0.00
2014-2-1,58,48,37,-100,-100,-100,77,24,6,28.17,28.05,21,4,21,0.00
2014-2-2,60,47,34,-100,-100,-100,29,10,6,28.20,28.05,13,2,13,0.00
2014-2-3,58,49,41,-100,-100,-100,80,39,7,28.08,27.96,13,2,13,0.04
2014-2-4,58,50,44,-100,-100,-100,77,42,7,28.17,28.08,9,2,9,0.00
2014-2-5,59,50,42,-100,-100,-100,71,40,7,28.23,28.08,10,2,10,0.00
2014-2-6,54,49,46,-100,-100,-100,91,63,27,28.17,28.08,9,1,9,0.12
2014-2-7,60,53,50,-100,-100,-100,93,64,19,28.29,28.14,9,1,9,0.00
2014-2-8,64,54,47,-100,-100,-100,84,51,13,28.35,28.26,10,2,10,0.00
2014-2-9,60,53,47,-100,-100,-100,95,65,27,28.32,28.20,10,1,10,0.00
2014-2-10,67,56,47,-100,-100,-100,77,47,13,28.26,28.11,13,2,13,0.00
2014-2-11,75,59,45,-100,-100,-100,57,22,5,28.23,28.14,10,1,10,0.00
2014-2-12,80,63,48,-100,-100,-100,11,7,5,28.29,28.17,10,2,11,0.00
2014-2-13,83,65,50,-100,-100,-100,9,7,5,28.20,28.11,11,2,11,0.00
2014-2-14,84,66,50,-100,-100,-100,8,7,5,28.17,28.11,13,2,13,0.00
2014-2-15,84,64,51,-100,-100,-100,8,6,5,28.17,28.08,9,1,9,0.00
2014-2-16,78,63,52,-100,-100,-100,8,6,5,28.20,28.08,10,1,10,0.00
2014-2-17,78,60,47,-100,-100,-100,65,14,5,28.20,28.08,10,2,10,0.00
2014-2-18,70,57,46,-100,-100,-100,95,45,5,28.17,28.05,10,2,12,0.00
2014-2-19,68,56,47,-100,-100,-100,82,36,7,28.11,27.99,12,1,12,0.00
2014-2-20,76,62,47,-100,-100,-100,72,17,5,28.17,28.08,14,2,14,0.00
2014-2-21,79,64,51,-100,-100,-100,8,6,5,28.14,27.99,15,2,15,0.00
2014-2-22,74,59,47,-100,-100,-100,8,7,5,28.05,27.99,11,1,11,0.00
2014-2-23,75,60,46,-100,-100,-100,9,7,5,28.11,28.02,10,2,11,0.00
2014-2-24,77,60,45,-100,-100,-100,30,10,5,28.14,28.02,12,2,12,0.00
2014-2-25,74,58,44,-100,-100,-100,82,35,6,28.17,28.05,13,2,13,0.00
2014-2-26,63,56,50,-100,-100,-100,62,36,14,28.20,28.11,8,1,8,0.00
2014-2-27,69,59,53,-100,-100,-100,80,41,7,28.14,27.96,10,2,11,0.04
2014-2-28,62,56,50,-100,-100,-100,87,69,36,28.02,27.76,17,0,17,1.18
2014-3-1,56,52,50,-100,-100,-100,85,65,30,28.08,27.88,0,0,0,0.31
2014-3-2,57,53,49,-100,-100,-100,79,59,32,28.26,28.08,0,0,0,0.00
2014-3-3,68,58,50,-100,-100,-100,86,45,7,28.23,28.11,9,2,10,0.04
2014-3-4,65,55,49,-100,-100,-100,83,54,23,28.17,28.08,10,1,11,0.00
2014-3-5,78,63,49,-100,-100,-100,86,38,5,28.20,28.11,12,2,12,0.00
2014-3-6,73,62,50,-100,-100,-100,69,32,6,28.20,28.08,9,2,10,0.00
2014-3-7,74,64,56,-100,-100,-100,84,32,5,28.11,28.02,19,4,19,0.00
2014-3-8,77,67,56,-100,-100,-100,7,6,5,28.29,28.11,12,4,12,0.00
2014-3-9,79,68,55,-100,-100,-100,7,6,5,28.29,28.17,21,3,21,0.00
2014-3-10,78,64,50,-100,-100,-100,8,6,5,28.20,28.11,14,2,14,0.00
2014-3-11,74,62,48,-100,-100,-100,9,7,5,28.14,28.05,13,2,13,0.00
2014-3-12,72,62,51,-100,-100,-100,15,7,5,28.17,28.05,14,4,16,0.00
2014-3-13,72,58,49,-100,-100,-100,71,29,6,28.14,27.99,17,2,17,0.00
2014-3-14,74,59,46,-100,-100,-100,80,34,6,28.23,28.11,13,2,13,0.00
2014-3-15,83,66,49,-100,-100,-100,70,26,5,28.35,28.20,20,4,20,0.00
2014-3-16,86,70,51,-100,-100,-100,8,6,5,28.38,28.23,12,2,13,0.00
2014-3-17,77,63,51,-100,-100,-100,56,11,5,28.23,27.91,15,2,15,0.00
2014-3-18,75,62,51,-100,-100,-100,75,29,5,28.05,27.94,13,2,14,0.00
2014-3-19,79,64,48,-100,-100,-100,8,6,5,28.17,28.05,14,2,14,0.00
2014-3-20,77,62,49,-100,-100,-100,35,9,5,28.17,28.02,13,2,13,0.00
2014-3-21,68,56,48,-100,-100,-100,76,39,7,28.11,28.02,10,2,11,0.00
2014-3-22,66,57,52,-100,-100,-100,56,36,10,28.20,28.11,11,2,11,0.00
2014-3-23,70,58,48,-100,-100,-100,80,42,9,28.23,28.11,11,2,11,0.00
2014-3-24,72,60,54,-100,-100,-100,80,45,9,28.20,28.11,15,2,15,0.00
2014-3-25,67,58,54,-100,-100,-100,81,48,22,28.14,27.99,11,1,11,0.00
2014-3-26,62,55,51,-100,-100,-100,82,41,9,28.08,27.99,15,2,15,0.04
2014-3-27,64,54,47,-100,-100,-100,72,33,6,28.20,28.08,10,1,10,0.00
2014-3-28,72,57,45,-100,-100,-100,73,33,7,28.26,28.17,11,2,11,0.00
2014-3-29,80,63,48,-100,-100,-100,60,23,5,28.26,28.08,13,2,13,0.00
2014-3-30,69,59,52,-100,-100,-100,56,22,5,28.17,28.05,13,2,13,0.00
2014-3-31,68,54,44,-100,-100,-100,53,26,5,28.14,28.05,17,2,17,0.00
2014-4-1,61,52,47,-100,-100,-100,82,32,7,28.11,28.02,13,2,13,0.08
2014-4-2,58,48,44,-100,-100,-100,73,51,7,28.17,28.02,11,2,14,0.47
2014-4-3,68,53,40,-100,-100,-100,87,42,5,28.23,28.11,12,2,12,0.00
2014-4-4,64,53,46,-100,-100,-100,53,28,6,28.17,28.02,13,1,13,0.00
2014-4-5,66,53,42,-100,-100,-100,67,30,7,28.17,28.05,14,2,14,0.00
2014-4-6,78,62,46,-100,-100,-100,63,21,5,28.23,28.11,28,4,28,0.00
2014-4-7,88,69,50,-100,-100,-100,11,7,5,28.26,28.17,13,2,13,0.00
2014-4-8,90,73,54,-100,-100,-100,8,6,5,28.26,28.14,11,2,11,0.00
2014-4-9,90,73,55,-100,-100,-100,7,6,5,28.20,28.08,11,2,12,0.00
2014-4-10,89,71,53,-100,-100,-100,7,6,5,28.14,28.02,13,2,13,0.00
2014-4-11,85,70,56,-100,-100,-100,27,6,5,28.08,27.94,13,2,13,0.00
2014-4-12,70,58,51,-100,-100,-100,75,34,7,28.08,27.96,14,3,14,0.00
2014-4-13,69,58,51,-100,-100,-100,73,34,7,28.14,28.05,11,2,15,0.00
2014-4-14,85,68,49,-100,-100,-100,72,19,5,28.17,28.08,14,3,15,0.00
2014-4-15,84,69,53,-100,-100,-100,7,6,5,28.14,27.96,14,3,14,0.00
2014-4-16,79,64,50,-100,-100,-100,38,15,5,27.99,27.91,11,2,11,0.00
2014-4-17,59,58,57,-100,-100,-100,59,54,37,28.02,27.99,8,1,8,0.00
2014-4-18,66,58,56,-100,-100,-100,73,55,23,28.05,27.96,8,1,8,0.00
2014-4-19,78,64,52,-100,-100,-100,72,34,5,28.17,28.05,13,2,13,0.00
2014-4-20,85,68,53,-100,-100,-100,66,28,5,28.17,28.11,13,2,13,0.00
2014-4-21,87,70,56,-100,-100,-100,54,21,5,28.17,28.05,12,2,14,0.00
2014-4-22,72,61,54,-100,-100,-100,76,34,6,28.08,27.99,13,3,13,0.00
2014-4-23,73,61,50,-100,-100,-100,77,30,6,28.08,27.99,12,2,12,0.00
2014-4-24,80,64,49,-100,-100,-100,35,14,5,28.11,27.99,13,3,13,0.00
2014-4-25,72,59,50,-100,-100,-100,78,33,9,28.05,27.88,13,2,13,0.16
2014-4-26,62,54,46,-100,-100,-100,86,34,6,28.11,27.85,14,2,14,0.28
2014-4-27,66,56,49,-100,-100,-100,72,36,8,28.11,28.05,13,2,13,0.28
2014-4-28,83,66,48,-100,-100,-100,65,23,5,28.14,28.02,16,3,16,0.00
2014-4-29,85,73,60,-100,-100,-100,7,6,5,28.23,28.11,15,4,15,0.00
2014-4-30,83,74,63,-100,-100,-100,7,6,5,28.23,28.08,25,5,25,0.00
2014-5-1,89,77,64,-100,-100,-100,7,6,5,28.20,28.08,17,4,25,0.00
2014-5-2,96,77,57,-100,-100,-100,7,6,5,28.17,28.05,14,2,14,0.28
2014-5-3,79,70,62,-100,-100,-100,7,6,5,28.08,28.02,10,2,10,0.00
2014-5-4,88,72,56,-100,-100,-100,7,6,5,28.11,28.02,12,2,12,0.00
2014-5-5,77,63,51,-100,-100,-100,41,16,5,28.11,28.02,12,3,12,0.00
2014-5-6,66,57,50,-100,-100,-100,68,28,6,28.02,27.91,15,2,15,0.00
2014-5-7,68,57,50,-100,-100,-100,61,34,7,28.11,27.99,14,4,14,0.00
2014-5-8,72,58,52,-100,-100,-100,55,35,7,28.17,28.08,11,2,11,0.00
2014-5-9,76,62,51,-100,-100,-100,64,31,6,28.17,28.08,13,2,13,0.00
2014-5-10,73,61,54,-100,-100,-100,83,42,11,28.11,27.94,14,2,18,0.00
2014-5-11,77,66,52,-100,-100,-100,72,15,5,28.11,27.94,31,7,31,0.00
2014-5-12,86,76,57,-100,-100,-100,7,6,5,28.17,28.08,17,4,17,0.00
2014-5-13,86,82,66,-100,-100,-100,7,6,5,28.23,28.08,14,4,15,0.00
2014-5-14,92,79,62,-100,-100,-100,7,6,5,28.23,28.11,20,4,20,0.00
2014-5-15,99,82,63,-100,-100,-100,7,6,5,28.20,28.08,15,3,15,0.00
2014-5-16,97,81,65,-100,-100,-100,7,6,5,28.14,28.02,14,3,14,0.00
2014-5-17,91,76,63,-100,-100,-100,27,7,5,28.08,27.96,14,3,15,0.00
2014-5-18,81,65,58,-100,-100,-100,72,31,5,28.02,27.96,14,2,14,0.00
2014-5-19,78,67,58,-100,-100,-100,45,22,6,28.08,27.99,17,4,17,0.00
2014-5-20,70,60,54,-100,-100,-100,59,30,7,28.11,28.02,17,2,17,0.00
2014-5-21,72,60,51,-100,-100,-100,63,32,7,28.11,28.02,12,2,12,0.00
2014-5-22,69,60,55,-100,-100,-100,73,43,15,28.14,28.05,13,2,13,0.00
2014-5-23,74,63,57,-100,-100,-100,64,38,11,28.14,28.05,13,2,13,0.00
2014-5-24,74,62,58,-100,-100,-100,64,46,18,28.14,28.02,11,2,11,0.00
2014-5-25,86,69,59,-100,-100,-100,66,34,6,28.11,27.99,12,2,14,0.00
2014-5-26,91,74,59,-100,-100,-100,72,27,5,28.11,28.02,15,2,15,0.00
2014-5-27,93,75,60,-100,-100,-100,73,26,5,28.11,28.02,15,2,15,0.00
2014-5-28,89,73,62,-100,-100,-100,71,29,5,28.08,27.94,14,3,14,0.00
2014-5-29,66,61,58,-100,-100,-100,75,58,41,28.02,27.99,8,0,8,0.00
2014-5-31,91,76,64,-100,-100,-100,24,8,5,28.02,27.99,13,3,13,0.00
2014-6-1,91,73,56,-100,-100,-100,38,14,5,28.02,27.94,12,2,12,0.00
2014-6-2,88,72,57,-100,-100,-100,26,10,5,28.02,27.96,15,3,15,0.00
2014-6-3,90,73,55,-100,-100,-100,45,15,5,28.05,27.94,11,2,11,0.00
2014-6-4,90,74,56,-100,-100,-100,7,6,5,27.99,27.91,13,2,13,0.00
2014-6-5,92,78,60,-100,-100,-100,24,7,5,27.99,27.91,15,3,15,0.00
2014-6-6,87,70,58,-100,-100,-100,46,22,5,27.96,27.91,14,3,14,0.00
2014-6-7,85,69,57,-100,-100,-100,82,36,6,27.96,27.88,15,2,15,0.00
2014-6-8,92,74,58,-100,-100,-100,67,27,5,27.96,27.91,15,2,15,0.00
2014-6-9,97,77,63,-100,-100,-100,49,22,5,27.96,27.88,13,3,13,0.00
2014-6-10,86,70,61,-100,-100,-100,77,36,6,28.02,27.91,14,3,14,0.00
2014-6-11,89,71,59,-100,-100,-100,77,31,5,28.05,27.96,12,2,12,0.00
2014-6-12,89,72,60,-100,-100,-100,59,21,5,28.08,27.99,13,3,13,0.00
2014-6-13,86,70,56,-100,-100,-100,74,27,5,28.08,27.99,13,3,13,0.00
2014-6-14,86,69,56,-100,-100,-100,72,27,5,28.02,27.94,13,3,13,0.00
2014-6-15,86,69,57,-100,-100,-100,75,28,5,28.02,27.94,14,3,14,0.00
2014-6-16,83,68,57,-100,-100,-100,72,31,5,28.05,27.96,13,3,13,0.00
2014-6-17,82,67,56,-100,-100,-100,64,26,5,28.05,27.99,14,3,14,0.00
2014-6-18,84,67,54,-100,-100,-100,69,21,5,28.08,28.02,10,3,11,0.00
2014-6-19,92,75,55,-100,-100,-100,28,9,5,28.08,28.02,15,3,15,0.00
2014-6-20,96,77,59,-100,-100,-100,25,9,5,28.08,27.99,15,2,15,0.00
2014-6-21,93,75,61,-100,-100,-100,31,14,5,28.02,27.96,13,2,13,0.00
2014-6-22,90,73,58,-100,-100,-100,60,23,5,28.05,27.99,13,2,13,0.00
2014-6-23,88,71,58,-100,-100,-100,71,28,5,28.08,27.99,13,2,15,0.00
2014-6-24,87,72,60,-100,-100,-100,78,34,6,28.08,27.99,13,3,13,0.00
2014-6-25,88,78,68,-100,-100,-100,40,14,6,28.05,27.96,15,4,15,0.00
2014-6-26,86,70,61,-100,-100,-100,70,35,6,28.05,27.96,10,2,11,0.00
2014-6-27,84,70,62,-100,-100,-100,66,36,7,28.02,27.96,11,3,11,0.00
2014-6-28,90,74,62,-100,-100,-100,74,33,6,28.02,27.96,12,2,12,0.00
2014-6-29,95,77,63,-100,-100,-100,63,28,5,28.02,27.96,13,3,13,0.00
2014-6-30,92,75,64,-100,-100,-100,83,37,6,28.05,27.96,15,3,15,0.00
2014-7-1,93,75,64,-100,-100,-100,70,33,6,28.02,27.94,13,2,13,0.00
2014-7-2,94,78,64,-100,-100,-100,67,28,6,28.05,27.96,13,3,13,0.00
2014-7-15,90,78,66,-100,0,200,66,25,8,28.17,28.08,15,4,15,0.00
2014-7-16,87,73,66,-100,0,200,70,35,6,28.17,28.08,13,3,13,0.00
2014-7-17,82,69,61,-100,0,200,70,35,7,28.17,28.08,13,3,13,0.00
2014-7-18,84,69,58,-100,0,200,65,31,6,28.14,28.05,11,2,11,0.00
2014-7-19,84,70,62,-100,0,200,56,33,9,28.11,28.02,12,2,12,0.00
2014-7-20,86,72,62,-100,0,200,71,36,8,28.14,28.05,11,3,11,0.00
2014-7-21,89,74,61,-100,0,200,73,30,5,28.20,28.11,15,2,15,0.00
2014-7-22,93,76,61,-100,0,200,63,22,5,28.20,28.14,13,2,13,0.00
2014-7-23,99,81,65,-100,0,200,23,9,5,28.17,28.05,12,2,13,0.00
2014-7-24,105,86,67,-100,0,200,7,6,4,28.08,27.91,13,2,13,0.00
2014-7-25,96,84,75,-100,0,200,21,7,6,28.08,27.99,12,1,13,0.00
2014-7-26,98,82,70,-100,0,200,32,14,5,28.14,28.05,13,3,13,0.00
2014-7-27,93,81,69,-100,0,200,32,12,5,28.17,28.08,11,2,12,0.00
2014-7-28,93,81,71,-100,0,200,7,6,4,28.23,28.11,13,2,13,0.00
2014-7-29,94,81,67,-100,0,200,7,6,5,28.20,28.08,11,2,11,0.00
2014-7-30,98,81,68,-100,0,200,12,7,5,28.11,28.02,13,2,13,0.00
2014-7-31,99,84,70,-100,0,200,29,11,5,28.08,27.99,12,2,13,0.00
2014-8-1,100,83,67,-100,0,200,43,16,5,28.08,27.99,14,2,14,0.00
2014-8-2,87,76,71,-100,0,200,71,35,6,28.17,28.02,18,2,19,0.08
2014-8-3,85,75,69,-100,0,200,83,50,8,28.11,28.02,15,2,15,0.87
2014-8-4,89,76,68,-100,0,200,85,38,5,28.14,28.08,14,2,14,0.08
2014-8-5,91,75,60,-100,0,200,43,14,5,28.17,28.11,13,2,13,0.00
2014-8-6,86,71,58,-100,0,200,54,20,5,28.17,28.05,12,2,14,0.08
2014-8-7,86,71,59,-100,0,200,73,32,6,28.14,28.02,12,2,12,0.00
2014-8-8,91,73,61,-100,0,200,82,36,5,28.08,27.99,13,2,13,0.00
2014-8-9,93,75,63,-100,0,200,81,36,5,28.11,28.05,13,2,13,0.00
2014-8-10,95,78,64,-100,0,200,73,29,5,28.11,28.05,12,2,12,0.00
2014-8-11,95,80,68,-100,0,200,42,16,5,28.11,28.02,13,2,13,0.08
2014-8-12,93,78,67,-100,0,200,49,20,5,28.11,28.02,13,3,13,0.00
2014-8-13,92,76,64,-100,0,200,66,26,5,28.11,28.02,13,2,13,0.08
2014-8-14,96,78,64,-100,0,200,65,22,5,28.11,28.02,14,2,14,0.00
2014-8-15,96,80,65,-100,0,200,26,10,5,28.14,28.05,13,2,14,0.08
2014-8-16,97,82,67,-100,0,200,10,7,5,28.17,28.05,11,2,11,0.00
2014-8-17,97,82,67,-100,0,200,8,6,5,28.11,27.99,12,2,14,0.08
2014-8-18,97,78,67,-100,0,200,25,15,6,28.02,27.96,13,2,13,0.00
2014-8-22,88,79,68,-100,0,200,8,7,5,28.08,28.05,13,3,13,0.00
2014-8-23,89,73,59,-100,0,200,38,12,5,28.11,27.99,13,2,15,0.00
2014-8-24,89,73,58,-100,0,200,46,15,5,28.05,27.94,11,2,11,0.00
2014-8-25,88,74,63,-100,0,200,42,17,5,28.08,27.99,11,2,11,0.00
2014-8-26,92,77,64,-100,0,200,32,13,5,28.14,28.05,13,2,13,0.00
2014-8-27,94,79,65,-100,0,200,15,7,5,28.20,28.11,14,2,14,0.00
2014-8-28,98,80,66,-100,0,200,12,7,5,28.17,28.05,15,2,15,0.00
2014-8-29,99,82,67,-100,0,200,8,6,5,28.05,27.94,13,2,13,0.00
2014-8-30,99,81,64,-100,0,200,31,10,5,27.99,27.91,11,2,11,0.00
2014-8-31,95,80,66,-100,0,200,22,8,5,27.99,27.91,13,2,13,0.00
2014-9-1,96,79,65,-100,0,200,26,11,5,27.99,27.91,8,2,12,0.00
2014-9-2,95,83,66,-100,0,200,46,15,5,27.99,27.91,10,3,11,0.00
2014-9-3,90,74,63,-100,0,200,87,37,5,27.96,27.85,10,2,13,0.00
2014-9-4,88,72,63,-100,0,200,83,42,6,27.94,27.88,11,2,12,0.00
2014-9-5,96,78,62,-100,0,200,59,25,5,28.05,27.94,11,2,11,0.00
2014-9-6,95,79,68,-100,0,200,44,22,5,28.05,27.94,11,1,12,0.00
2014-9-7,96,83,73,-100,0,200,24,10,6,27.99,27.91,16,3,19,0.00
2014-9-8,82,76,72,-100,0,200,9,6,5,28.05,27.96,8,1,10,0.00
2014-9-9,90,78,68,-100,0,200,7,6,5,28.08,27.99,12,2,14,0.00
2014-9-10,97,84,67,-100,0,200,7,6,5,28.05,27.94,11,2,13,0.00
2014-9-11,98,80,66,-100,0,200,9,6,5,28.02,27.94,13,2,14,0.00
2014-9-12,100,82,68,-100,0,200,22,8,5,27.99,27.91,13,2,14,0.00
2014-9-13,103,85,69,-100,0,200,8,6,4,27.96,27.88,12,2,17,0.00
2014-9-14,104,88,73,-100,0,200,7,6,4,27.94,27.85,12,2,13,0.00
2014-9-15,104,89,74,-100,0,200,8,6,4,27.99,27.91,13,2,13,0.00
2014-9-16,102,87,77,-100,0,200,24,7,5,27.96,27.88,20,3,20,0.00
2014-9-17,97,85,75,-100,0,200,24,11,5,27.96,27.85,13,3,15,0.00
2014-9-18,85,74,66,-100,0,200,49,21,6,28.02,27.94,11,2,13,0.00
2014-9-19,84,71,65,-100,0,200,70,37,6,28.05,27.94,10,2,10,0.00
2014-9-20,82,72,63,-100,0,200,79,36,10,28.05,27.99,10,2,13,0.00
2014-9-21,84,72,63,-100,0,200,75,35,6,28.11,28.02,10,2,10,0.00
2014-9-22,90,74,60,-100,0,200,60,25,5,28.11,28.02,10,2,11,0.00
2014-9-23,96,77,60,-100,0,200,53,21,5,28.11,28.02,11,2,13,0.00
2014-9-24,98,81,65,-100,0,200,24,11,5,28.05,27.96,13,2,13,0.00
2014-9-25,95,80,69,-100,0,200,9,6,5,28.08,27.99,13,2,15,0.00
2014-9-26,87,74,63,-100,0,200,51,15,5,28.02,27.94,13,3,15,0.00
2014-9-27,75,65,58,-100,0,200,69,34,6,28.02,27.91,15,2,15,0.00
2014-9-28,76,65,59,-100,0,200,74,39,5,28.05,27.96,11,3,11,0.00
2014-9-29,81,69,58,-100,0,200,82,34,5,28.05,27.96,12,2,13,0.00
2014-9-30,87,72,58,-100,0,200,38,14,5,28.02,27.91,10,2,13,0.00
2014-10-1,88,72,58,-100,0,200,46,20,5,28.02,27.88,11,2,12,0.00
2014-10-2,91,76,63,-100,0,200,43,9,5,28.14,28.02,11,2,14,0.00
2014-10-3,95,78,59,-100,0,200,7,6,5,28.20,28.08,8,2,10,0.00
2014-10-4,100,80,64,-100,0,200,7,6,5,28.11,27.99,14,2,14,0.00
2014-10-5,98,79,62,-100,0,200,7,6,5,28.08,27.96,12,2,12,0.00
2014-10-6,95,80,65,-100,0,200,7,6,5,28.05,27.96,12,2,12,0.00
2014-10-7,91,78,66,-100,0,200,7,6,5,28.05,27.96,10,2,10,0.00
2014-10-8,88,74,61,-100,0,200,29,12,5,27.99,27.91,10,2,13,0.00
2014-10-9,81,69,60,-100,0,200,84,36,7,28.08,27.99,9,1,9,0.00
2014-10-10,84,71,58,-100,0,200,80,31,6,28.11,28.02,11,2,13,0.00
2014-10-11,89,72,58,-100,0,200,68,30,5,28.08,27.99,10,2,10,0.00
2014-10-12,87,71,58,-100,0,200,44,23,5,28.05,27.96,11,2,11,0.00
2014-10-13,91,74,60,-100,0,200,58,15,5,28.11,28.05,12,2,13,0.00
2014-10-14,81,68,58,-100,0,200,59,22,6,28.11,27.99,11,1,11,0.00
2014-10-15,77,66,59,-100,0,200,85,41,8,28.11,28.02,10,2,10,0.00
2014-10-16,76,64,56,-100,0,200,70,39,6,28.14,28.02,10,1,10,0.00
2014-10-17,74,64,56,-100,0,200,80,45,9,28.08,27.99,10,1,10,0.00
2014-10-18,76,66,60,-100,0,200,53,32,8,28.05,27.94,9,1,10,0.00
2014-10-19,78,66,56,-100,0,200,72,38,8,28.02,27.94,11,2,11,0.00
2014-10-20,80,67,59,-100,0,200,85,49,7,28.05,27.96,10,1,10,0.00
2014-10-21,81,67,58,-100,0,200,87,45,5,28.02,27.94,11,2,11,0.00
2014-10-22,88,70,54,-100,0,200,46,19,5,28.08,27.99,8,1,8,0.00
2014-10-23,91,72,57,-100,0,200,25,9,5,28.11,28.02,13,1,15,0.00
2014-10-24,90,75,58,-100,0,200,7,6,5,28.11,28.02,10,2,10,0.00
2014-10-25,84,71,62,-100,0,200,7,6,5,28.14,28.08,13,2,13,0.00
2014-10-26,75,63,52,-100,0,200,56,25,6,28.11,27.94,9,1,9,0.00
2014-10-27,76,64,55,-100,0,200,81,40,5,28.05,27.94,11,1,11,0.00
2014-10-28,83,67,54,-100,0,200,80,34,5,28.14,28.05,9,1,9,0.00
2014-10-29,88,70,55,-100,0,200,35,14,5,28.14,28.02,12,1,12,0.00
2014-10-30,83,68,56,-100,0,200,41,15,5,28.08,28.02,11,2,12,0.00
2014-10-31,69,61,56,-100,0,200,78,46,17,28.05,27.94,10,1,11,0.52
2014-11-1,62,57,50,-100,0,200,83,44,11,28.05,27.91,14,1,14,0.20
2014-11-2,65,54,48,-100,0,200,80,42,5,28.14,28.05,9,1,10,0.00
2014-11-3,68,58,45,-100,0,200,58,19,5,28.29,28.14,19,2,21,0.00
2014-11-4,75,62,49,-100,0,200,8,7,5,28.32,28.17,9,2,10,0.00
2014-11-5,83,68,54,-100,0,200,7,6,5,28.26,28.14,11,2,11,0.00
2014-11-6,85,70,58,-100,0,200,7,6,5,28.32,28.17,11,2,12,0.00
2014-11-7,88,71,55,-100,0,200,7,6,5,28.29,28.08,10,1,10,0.00
2014-11-8,89,71,55,-100,0,200,7,6,5,28.26,28.08,10,1,10,0.00
2014-11-9,86,69,56,-100,0,200,38,10,5,28.32,27.91,10,1,11,0.00
2014-11-10,57,56,50,-100,0,200,80,71,38,28.53,27.96,6,2,6,0.00
2014-11-11,62,59,57,-100,0,200,77,51,16,28.88,28.20,6,2,6,0.00
2014-11-12,66,59,55,-100,0,200,63,37,10,29.50,28.32,12,1,12,0.00
2014-11-13,65,59,53,-100,0,200,68,42,18,31.01,28.97,9,1,9,0.00
2014-11-14,68,60,56,-100,0,200,70,46,10,31.01,29.47,9,1,9,0.00
2014-11-15,68,60,55,-100,0,200,80,48,7,31.01,30.33,11,1,11,0.00
2014-11-16,66,58,49,-100,0,200,76,15,5,31.01,31.01,18,2,19,0.00
2014-11-17,70,58,47,-100,0,200,8,7,5,31.01,31.01,9,2,9,0.00
2014-11-18,74,60,47,-100,0,200,8,7,5,31.01,31.01,17,2,17,0.00
2014-11-19,71,58,46,-100,0,200,25,9,5,31.01,31.01,11,1,11,0.00
2014-11-20,66,56,44,-100,0,200,58,28,5,31.01,31.01,10,1,10,0.00
2014-11-21,67,58,50,-100,0,200,73,36,7,31.01,31.01,9,0,9,0.00
2014-11-22,69,57,46,-100,0,200,67,31,5,31.01,31.01,10,2,12,0.00
2014-11-23,74,59,48,-100,0,200,77,19,5,31.01,31.01,23,2,26,0.00
2014-11-24,74,59,46,-100,0,200,9,7,5,31.01,31.01,10,2,10,0.00
2014-11-25,76,61,46,-100,0,200,9,7,5,31.01,31.01,10,2,10,0.00
2014-11-26,82,68,49,-100,0,200,8,7,5,31.01,31.01,8,2,8,0.00
2014-11-27,86,68,55,-100,0,200,7,6,5,31.01,31.01,9,2,10,0.00
2014-11-28,82,65,53,-100,0,200,7,6,5,31.01,31.01,9,1,9,0.00
2014-11-29,76,60,49,-100,0,200,69,14,5,31.01,31.01,9,1,9,0.00
2014-11-30,63,58,50,-100,0,200,76,45,23,31.01,31.01,14,2,14,0.00
2014-12-1,67,61,53,-100,0,200,81,39,5,31.01,31.01,9,0,9,0.00
2014-12-2,64,61,56,-100,0,200,81,41,6,31.01,31.01,5,0,6,0.79
2014-12-3,63,61,58,-100,0,200,80,67,57,31.01,31.01,8,0,8,0.59
2014-12-4,67,61,56,-100,0,200,82,53,10,31.01,31.01,10,1,10,0.20
2014-12-5,67,58,51,-100,0,200,74,45,12,31.01,31.01,8,0,9,0.00
2014-12-6,67,59,53,-100,0,200,82,45,15,31.01,31.01,10,1,10,0.00
2014-12-7,74,62,52,-100,0,200,42,18,6,31.01,31.01,11,2,11,0.00
2014-12-8,74,63,53,-100,0,200,29,11,5,31.01,31.01,11,2,13,0.00
2014-12-9,75,61,48,-100,0,200,37,12,5,31.01,31.01,11,2,12,0.00
2014-12-10,73,59,48,-100,0,200,20,9,5,31.01,31.01,8,1,8,0.00
2014-12-11,66,58,52,-100,0,200,53,34,13,31.01,31.01,10,1,12,0.00
2014-12-12,58,54,52,-100,0,200,81,67,35,31.01,31.01,0,0,0,0.87
2014-12-13,59,52,43,-100,0,200,86,50,9,31.01,31.01,4,0,4,0.00
2014-12-14,61,50,41,-100,0,200,76,39,6,31.01,31.01,8,1,8,0.00
2014-12-15,61,52,43,-100,0,200,38,16,6,31.01,31.01,7,1,8,0.00
2014-12-16,55,51,46,-100,0,200,79,47,26,31.01,31.01,6,0,8,0.00
2014-12-17,58,53,48,-100,0,200,83,53,25,31.01,31.01,9,0,9,0.31
2014-12-18,60,51,44,-100,0,200,78,46,9,31.01,31.01,8,0,8,0.00
2014-12-19,63,52,44,-100,0,200,82,44,7,31.01,31.01,8,1,8,0.00
2014-12-20,57,50,45,-100,0,200,81,57,28,31.01,31.01,6,0,6,0.00
2014-12-21,65,54,46,-100,0,200,88,52,13,31.01,31.01,8,1,8,0.00
2014-12-22,75,59,47,-100,0,200,61,30,5,31.01,31.01,9,1,9,0.00
2014-12-23,77,66,53,-100,0,200,17,7,5,31.01,31.01,13,3,13,0.00
2014-12-24,70,59,48,-100,0,200,28,7,5,31.01,31.01,9,2,9,0.00
2014-12-25,57,52,47,-100,0,200,54,14,6,31.01,31.01,20,1,20,0.00
2014-12-26,56,49,42,-100,0,200,10,8,6,31.01,31.01,10,3,10,0.00
2014-12-27,57,46,39,-100,0,200,10,9,6,31.01,31.01,9,2,9,0.00
2014-12-28,58,45,34,-100,0,200,39,12,6,31.01,31.01,8,1,8,0.00
2014-12-29,59,45,34,-100,0,200,57,29,6,31.01,31.01,8,0,8,0.00
2014-12-30,50,42,36,-100,0,200,84,63,44,31.01,31.01,15,1,15,0.47
2014-12-31,45,39,31,-100,0,200,65,20,9,31.01,31.01,26,3,26,0.04
2015-1-1,52,39,28,-100,0,200,47,23,7,31.01,31.01,8,1,8,0.00
2015-1-2,55,42,30,-100,0,200,66,28,7,31.01,31.01,8,1,9,0.00